Time;durP1;ratioP1;P1;durP2;ratioP2;P2;SDS_P1;SDS_P2;PMS_P1;PMS_P2;Temp;Humidity;BMP_temperature;BMP_pressure;BME280_temperature;BME280_humidity;BME280_pressure;Samples;Min_cycle;Max_cycle;Signal;HPM_P1;HPM_P2
2023/08/31 00:01:49;;;;;;;6.38;5.70;;;;;;;10.48;100.00;100831.72;5068665;28;20020;-75
2023/08/31 00:04:14;;;;;;;8.43;5.97;;;;;;;10.45;100.00;100829.16;5056127;28;20495;-75
2023/08/31 00:06:44;;;;;;;8.68;6.13;;;;;;;10.43;100.00;100837.03;5067603;28;20016;-75
2023/08/31 00:09:10;;;;;;;9.40;5.63;;;;;;;10.40;100.00;100833.63;5064459;28;20028;-75
2023/08/31 00:11:36;;;;;;;7.60;6.10;;;;;;;10.42;100.00;100827.47;5066305;28;20059;-75
2023/08/31 00:14:02;;;;;;;8.82;6.45;;;;;;;10.38;100.00;100828.44;5066928;28;20025;-75
2023/08/31 00:16:27;;;;;;;7.97;6.63;;;;;;;10.39;100.00;100827.56;5063119;28;20399;-75
2023/08/31 00:18:54;;;;;;;11.35;6.63;;;;;;;10.34;100.00;100828.56;5066465;28;20475;-75
2023/08/31 00:21:19;;;;;;;10.15;6.97;;;;;;;10.32;100.00;100828.59;5064892;28;20479;-75
2023/08/31 00:23:45;;;;;;;8.20;6.93;;;;;;;10.32;100.00;100831.19;5065760;28;20115;-75
2023/08/31 00:26:10;;;;;;;8.30;7.15;;;;;;;10.30;100.00;100822.56;5065213;28;20353;-75
2023/08/31 00:28:36;;;;;;;8.98;6.88;;;;;;;10.29;100.00;100833.88;5065555;28;21434;-75
2023/08/31 00:31:05;;;;;;;10.05;6.95;;;;;;;10.30;100.00;100830.38;5065735;28;20110;-75
2023/08/31 00:33:33;;;;;;;11.02;7.40;;;;;;;10.27;100.00;100823.50;5063796;28;20025;-74
2023/08/31 00:36:03;;;;;;;8.88;7.05;;;;;;;10.24;100.00;100828.75;5066566;28;20028;-75
2023/08/31 00:38:29;;;;;;;8.10;6.88;;;;;;;10.25;100.00;100826.97;5061993;28;20039;-75
2023/08/31 00:40:54;;;;;;;9.82;6.53;;;;;;;10.24;100.00;100833.94;5067843;28;20021;-75
2023/08/31 00:43:20;;;;;;;10.00;6.82;;;;;;;10.19;100.00;100830.56;5065352;28;20046;-75
2023/08/31 00:45:48;;;;;;;9.77;7.95;;;;;;;10.19;100.00;100829.72;5065382;28;20021;-75
2023/08/31 00:48:16;;;;;;;9.98;7.45;;;;;;;10.19;100.00;100840.13;5065949;28;20049;-75
2023/08/31 00:50:43;;;;;;;10.85;7.22;;;;;;;10.21;100.00;100834.00;5064070;28;20041;-75
2023/08/31 00:53:08;;;;;;;11.93;7.25;;;;;;;10.20;100.00;100826.22;5066227;28;20056;-75
2023/08/31 00:55:34;;;;;;;9.63;7.50;;;;;;;10.17;100.00;100837.59;5066344;28;20060;-75
2023/08/31 00:58:00;;;;;;;10.38;7.90;;;;;;;10.15;100.00;100834.16;5063793;28;20383;-75
2023/08/31 01:00:37;;;;;;;9.77;7.90;;;;;;;10.13;100.00;100832.47;5055529;28;20029;-75
2023/08/31 01:03:13;;;;;;;8.98;6.95;;;;;;;10.12;100.00;100830.75;5058809;28;20053;-75
2023/08/31 01:05:54;;;;;;;9.80;7.53;;;;;;;10.08;100.00;100823.00;5057363;28;20059;-75
2023/08/31 01:08:35;;;;;;;9.80;7.82;;;;;;;10.06;100.00;100824.78;5052514;28;20028;-75
2023/08/31 01:11:12;;;;;;;10.02;7.85;;;;;;;10.05;100.00;100823.06;5063547;28;20616;-75
2023/08/31 01:13:41;;;;;;;9.98;8.00;;;;;;;10.03;100.00;100823.97;5068382;28;20067;-75
2023/08/31 01:16:08;;;;;;;8.05;7.25;;;;;;;10.01;100.00;100825.78;5063660;28;20024;-75
2023/08/31 01:18:35;;;;;;;13.05;8.05;;;;;;;9.99;100.00;100823.19;5064630;28;20435;-75
2023/08/31 01:21:11;;;;;;;9.88;7.68;;;;;;;10.00;100.00;100822.28;5058541;28;20025;-75
2023/08/31 01:23:53;;;;;;;11.05;8.05;;;;;;;9.97;100.00;100817.19;5056172;28;20373;-75
2023/08/31 01:26:20;;;;;;;10.65;7.68;;;;;;;9.95;100.00;100818.09;5062937;28;20024;-75
2023/08/31 01:28:47;;;;;;;9.30;8.10;;;;;;;9.92;100.00;100826.81;5065901;28;20027;-75
2023/08/31 01:31:12;;;;;;;14.45;8.23;;;;;;;9.94;100.00;100830.25;5064590;28;20032;-75
2023/08/31 01:33:37;;;;;;;10.23;7.93;;;;;;;9.93;100.00;100822.47;5063545;28;20373;-75
2023/08/31 01:36:08;;;;;;;11.55;8.18;;;;;;;9.96;100.00;100830.22;5065267;28;20444;-75
2023/08/31 01:38:37;;;;;;;11.70;8.63;;;;;;;9.94;100.00;100829.38;5064707;28;20025;-75
2023/08/31 01:41:10;;;;;;;10.02;9.02;;;;;;;9.93;100.00;100828.53;5066658;28;20067;-75
2023/08/31 01:43:36;;;;;;;11.10;9.32;;;;;;;9.93;100.00;100831.13;5064460;28;20033;-75
2023/08/31 01:46:02;;;;;;;11.82;9.90;;;;;;;9.92;100.00;100836.38;5065506;28;20488;-75
2023/08/31 01:48:28;;;;;;;14.30;9.80;;;;;;;9.91;100.00;100835.53;5063790;28;20064;-75
2023/08/31 01:50:53;;;;;;;13.27;10.57;;;;;;;9.87;100.00;100839.06;5062141;28;20064;-75
2023/08/31 01:53:18;;;;;;;12.60;9.82;;;;;;;9.91;100.00;100842.47;5064982;28;20081;-75
2023/08/31 01:55:43;;;;;;;12.82;10.10;;;;;;;9.94;100.00;100842.41;5061127;28;20045;-75
2023/08/31 01:58:09;;;;;;;10.93;9.77;;;;;;;9.96;100.00;100836.28;5064912;28;20099;-75
2023/08/31 02:00:35;;;;;;;14.02;10.45;;;;;;;9.99;100.00;100835.38;5060126;28;20020;-75
2023/08/31 02:03:01;;;;;;;15.68;11.80;;;;;;;10.05;100.00;100837.84;5062715;28;20059;-75
2023/08/31 02:05:27;;;;;;;15.88;11.52;;;;;;;10.11;100.00;100842.06;5064864;28;20357;-75
2023/08/31 02:07:52;;;;;;;13.07;10.82;;;;;;;10.17;100.00;100839.31;5061924;28;20029;-75
2023/08/31 02:10:17;;;;;;;15.02;11.50;;;;;;;10.19;100.00;100847.97;5062125;28;20536;-75
2023/08/31 02:12:43;;;;;;;16.02;11.32;;;;;;;10.24;100.00;100843.53;5059016;28;20032;-75
2023/08/31 02:15:09;;;;;;;16.88;11.65;;;;;;;10.34;100.00;100855.47;5055516;28;20037;-75
2023/08/31 02:17:35;;;;;;;15.70;11.85;;;;;;;10.38;100.00;100849.31;5061016;28;20021;-75
2023/08/31 02:20:01;;;;;;;15.73;12.10;;;;;;;10.40;100.00;100841.44;5053728;28;20104;-75
2023/08/31 02:22:26;;;;;;;15.23;11.75;;;;;;;10.46;100.00;100847.41;5066775;28;20036;-75
2023/08/31 02:24:52;;;;;;;15.40;11.50;;;;;;;10.50;100.00;100845.56;5060121;28;20032;-75
2023/08/31 02:27:17;;;;;;;17.85;11.45;;;;;;;10.51;100.00;100842.91;5067885;28;20036;-75
2023/08/31 02:29:43;;;;;;;14.85;11.32;;;;;;;10.53;100.00;100846.34;5059747;28;20404;-75
2023/08/31 02:32:08;;;;;;;13.35;10.93;;;;;;;10.57;100.00;100841.91;5066740;28;20119;-75
2023/08/31 02:34:34;;;;;;;13.77;11.02;;;;;;;10.50;100.00;100829.94;5061620;28;20087;-75
2023/08/31 02:36:59;;;;;;;13.02;10.73;;;;;;;10.52;100.00;100838.56;5059167;28;20024;-75
2023/08/31 02:39:25;;;;;;;11.98;10.70;;;;;;;10.43;100.00;100838.75;5066846;28;20467;-75
2023/08/31 02:41:50;;;;;;;13.82;11.38;;;;;;;10.37;100.00;100841.53;5065910;28;20499;-75
2023/08/31 02:44:15;;;;;;;14.15;12.27;;;;;;;10.29;100.00;100841.69;5066512;28;20050;-75
2023/08/31 02:46:41;;;;;;;17.40;12.52;;;;;;;10.34;100.00;100850.25;5062646;28;20521;-75
2023/08/31 02:49:06;;;;;;;20.90;15.15;;;;;;;10.30;100.00;100849.47;5064687;28;20127;-75
2023/08/31 02:51:31;;;;;;;20.65;15.48;;;;;;;10.27;100.00;100844.34;5060763;28;20082;-75
2023/08/31 02:53:57;;;;;;;23.95;16.67;;;;;;;10.22;100.00;100845.28;5058400;28;20059;-75
2023/08/31 02:56:22;;;;;;;21.48;16.45;;;;;;;10.15;100.00;100843.72;5062531;28;20020;-75
2023/08/31 02:58:48;;;;;;;23.67;17.77;;;;;;;10.14;100.00;100850.69;5059871;28;20028;-75
2023/08/31 03:01:14;;;;;;;24.40;18.33;;;;;;;10.11;100.00;100852.50;5070421;28;20107;-75
2023/08/31 03:03:41;;;;;;;24.27;17.90;;;;;;;10.06;100.00;100839.53;5064378;28;20426;-75
2023/08/31 03:06:10;;;;;;;24.95;18.88;;;;;;;10.03;100.00;100850.88;5061245;28;20025;-75
2023/08/31 03:08:37;;;;;;;27.48;18.70;;;;;;;9.97;100.00;100853.63;5063770;28;20028;-75
2023/08/31 03:11:03;;;;;;;25.65;18.92;;;;;;;9.93;100.00;100848.50;5060374;28;20388;-75
2023/08/31 03:13:29;;;;;;;26.65;19.55;;;;;;;9.88;100.00;100842.56;5064010;28;20035;-75
2023/08/31 03:15:56;;;;;;;27.73;18.80;;;;;;;9.88;100.00;100846.00;5058406;28;20573;-75
2023/08/31 03:18:22;;;;;;;23.60;17.83;;;;;;;9.82;100.00;100840.94;5059284;28;20137;-75
2023/08/31 03:20:47;;;;;;;22.60;16.73;;;;;;;9.75;100.00;100837.59;5059929;28;20109;-75
2023/08/31 03:23:12;;;;;;;21.08;16.60;;;;;;;9.79;100.00;100856.59;5060406;28;20032;-75
2023/08/31 03:25:38;;;;;;;22.98;16.83;;;;;;;9.79;100.00;100854.00;5062639;28;20032;-75
2023/08/31 03:28:03;;;;;;;22.88;16.85;;;;;;;9.77;100.00;100860.97;5061035;28;20139;-75
2023/08/31 03:30:29;;;;;;;20.13;16.13;;;;;;;9.72;100.00;100855.03;5058916;28;20112;-75
2023/08/31 03:32:54;;;;;;;19.75;16.25;;;;;;;9.67;100.00;100854.25;5058225;28;20024;-75
2023/08/31 03:35:19;;;;;;;20.40;16.55;;;;;;;9.72;100.00;100858.47;5058663;28;20055;-75
2023/08/31 03:37:48;;;;;;;21.83;18.23;;;;;;;9.76;100.00;100861.88;5062942;28;20013;-75
2023/08/31 03:40:13;;;;;;;23.45;18.05;;;;;;;9.74;100.00;100848.88;5062952;28;20075;-75
2023/08/31 03:42:38;;;;;;;24.55;18.13;;;;;;;9.80;100.00;100843.53;5054990;28;20034;-75
2023/08/31 03:45:05;;;;;;;24.63;18.73;;;;;;;9.85;100.00;100848.69;5062764;28;20115;-76
2023/08/31 03:47:30;;;;;;;30.02;21.23;;;;;;;9.84;100.00;100845.22;5050380;28;20079;-75
2023/08/31 03:49:56;;;;;;;30.67;21.83;;;;;;;9.83;100.00;100842.63;5060379;28;20070;-75
2023/08/31 03:52:22;;;;;;;30.98;22.13;;;;;;;9.79;100.00;100830.56;5055753;28;20055;-75
2023/08/31 03:54:48;;;;;;;34.50;22.27;;;;;;;9.82;100.00;100843.53;5065582;28;20032;-75
2023/08/31 03:57:13;;;;;;;31.20;22.10;;;;;;;9.76;100.00;100835.84;5059823;28;20035;-75
2023/08/31 03:59:38;;;;;;;31.30;22.45;;;;;;;9.74;100.00;100853.22;5059062;28;20087;-75
2023/08/31 04:02:03;;;;;;;37.33;24.20;;;;;;;9.71;100.00;100848.97;5053972;28;20159;-75
2023/08/31 04:04:29;;;;;;;32.05;22.77;;;;;;;9.67;100.00;100841.22;5059640;28;20023;-75
2023/08/31 04:06:54;;;;;;;33.85;23.73;;;;;;;9.68;100.00;100850.72;5057636;28;20029;-75
2023/08/31 04:09:19;;;;;;;33.92;23.48;;;;;;;9.60;100.00;100841.34;5063699;28;20024;-75
2023/08/31 04:11:45;;;;;;;31.92;22.77;;;;;;;9.61;100.00;100853.50;5062648;28;20036;-75
2023/08/31 04:14:11;;;;;;;32.85;22.55;;;;;;;9.60;100.00;100856.97;5061206;28;20039;-75
2023/08/31 04:16:36;;;;;;;32.83;23.10;;;;;;;9.60;100.00;100862.16;5060752;28;20024;-75
2023/08/31 04:19:02;;;;;;;32.75;22.00;;;;;;;9.51;100.00;100853.66;5063048;28;20424;-75
2023/08/31 04:21:27;;;;;;;30.13;22.20;;;;;;;9.57;100.00;100867.41;5061939;28;20025;-75
2023/08/31 04:23:52;;;;;;;33.97;22.30;;;;;;;9.53;100.00;100865.78;5063065;28;20031;-75
2023/08/31 04:26:18;;;;;;;31.08;21.05;;;;;;;9.54;100.00;100872.69;5064978;28;20392;-75
2023/08/31 04:28:43;;;;;;;28.52;20.42;;;;;;;9.51;100.00;100869.28;5065507;28;20050;-75
2023/08/31 04:31:09;;;;;;;29.10;20.40;;;;;;;9.53;100.00;100878.78;5067588;28;20365;-75
2023/08/31 04:33:35;;;;;;;29.58;20.38;;;;;;;9.54;100.00;100877.88;5064881;28;20055;-75
2023/08/31 04:36:01;;;;;;;28.55;19.27;;;;;;;9.52;100.00;100868.41;5066339;28;20043;-75
2023/08/31 04:38:26;;;;;;;26.48;18.35;;;;;;;9.50;100.00;100881.44;5063600;28;20468;-75
2023/08/31 04:40:51;;;;;;;32.35;18.80;;;;;;;9.52;100.00;100878.81;5065249;28;20099;-75
2023/08/31 04:43:17;;;;;;;26.13;18.70;;;;;;;9.53;100.00;100880.53;5064947;28;20028;-75
2023/08/31 04:45:42;;;;;;;23.52;16.35;;;;;;;9.52;100.00;100879.69;5064607;28;20024;-75
2023/08/31 04:48:08;;;;;;;24.75;16.33;;;;;;;9.49;100.00;100884.94;5067335;28;20052;-75
2023/08/31 04:50:33;;;;;;;21.67;15.55;;;;;;;9.49;100.00;100892.75;5061956;28;20033;-75
2023/08/31 04:52:58;;;;;;;22.58;16.30;;;;;;;9.49;100.00;100887.53;5066209;28;20077;-75
2023/08/31 04:55:25;;;;;;;24.27;15.88;;;;;;;9.48;100.00;100891.03;5062058;28;20100;-75
2023/08/31 04:57:50;;;;;;;20.00;15.20;;;;;;;9.47;100.00;100891.91;5068318;28;20051;-75
2023/08/31 05:00:16;;;;;;;19.13;14.50;;;;;;;9.48;100.00;100893.63;5062548;28;20387;-75
2023/08/31 05:02:41;;;;;;;18.05;14.57;;;;;;;9.47;100.00;100902.31;5062492;28;20033;-75
2023/08/31 05:05:07;;;;;;;23.70;14.48;;;;;;;9.45;100.00;100892.81;5069859;28;20021;-75
2023/08/31 05:07:32;;;;;;;18.00;13.95;;;;;;;9.47;100.00;100901.47;5062374;28;20490;-75
2023/08/31 05:09:57;;;;;;;18.27;13.60;;;;;;;9.43;100.00;100897.22;5066243;28;20029;-75
2023/08/31 05:12:23;;;;;;;16.70;13.02;;;;;;;9.48;100.00;100906.66;5066657;28;20529;-75
2023/08/31 05:14:48;;;;;;;21.13;13.60;;;;;;;9.45;100.00;100900.63;5068519;28;20087;-75
2023/08/31 05:17:13;;;;;;;15.60;12.75;;;;;;;9.49;100.00;100910.09;5061593;28;20403;-75
2023/08/31 05:19:39;;;;;;;17.95;13.90;;;;;;;9.50;100.00;100917.88;5064762;28;20099;-75
2023/08/31 05:22:05;;;;;;;18.83;12.88;;;;;;;9.51;100.00;100922.19;5065507;28;20050;-75
2023/08/31 05:24:30;;;;;;;16.02;12.55;;;;;;;9.53;100.00;100928.22;5064807;28;20510;-75
2023/08/31 05:26:56;;;;;;;17.65;12.43;;;;;;;9.55;100.00;100921.28;5065537;28;20016;-75
2023/08/31 05:29:21;;;;;;;18.25;12.35;;;;;;;9.57;100.00;100929.03;5064363;28;20170;-75
2023/08/31 05:31:46;;;;;;;18.20;12.60;;;;;;;9.56;100.00;100932.53;5062568;28;20037;-75
2023/08/31 05:34:16;;;;;;;16.42;12.27;;;;;;;9.58;100.00;100926.41;5067227;28;20056;-75
2023/08/31 05:36:41;;;;;;;17.42;12.52;;;;;;;9.57;100.00;100935.09;5060735;28;20033;-75
2023/08/31 05:39:07;;;;;;;18.55;12.73;;;;;;;9.59;100.00;100938.53;5065024;28;20086;-75
2023/08/31 05:41:33;;;;;;;21.08;12.45;;;;;;;9.58;100.00;100933.34;5062068;28;20096;-75
2023/08/31 05:43:58;;;;;;;15.10;11.95;;;;;;;9.61;100.00;100949.78;5065647;28;20043;-75
2023/08/31 05:46:24;;;;;;;17.92;12.55;;;;;;;9.66;100.00;100948.84;5063213;28;20115;-75
2023/08/31 05:48:49;;;;;;;17.48;13.13;;;;;;;9.74;100.00;100952.16;5063486;28;20040;-75
2023/08/31 05:51:14;;;;;;;19.90;13.30;;;;;;;9.71;100.00;100933.97;5064998;28;20395;-75
2023/08/31 05:53:39;;;;;;;17.95;12.60;;;;;;;9.86;100.00;100941.53;5064651;28;20066;-75
2023/08/31 05:56:06;;;;;;;18.05;12.48;;;;;;;9.92;100.00;100946.63;5065199;28;20060;-75
2023/08/31 05:58:33;;;;;;;20.00;12.57;;;;;;;9.99;100.00;100949.97;5064265;28;20100;-75
2023/08/31 06:00:59;;;;;;;18.25;12.52;;;;;;;10.05;100.00;100947.25;5063104;28;20067;-75
2023/08/31 06:03:25;;;;;;;18.50;12.93;;;;;;;10.11;100.00;100947.13;5065149;28;20060;-75
2023/08/31 06:05:51;;;;;;;23.00;13.43;;;;;;;10.14;100.00;100941.00;5068281;28;20451;-75
2023/08/31 06:08:16;;;;;;;17.05;13.07;;;;;;;10.24;100.00;100947.75;5063812;28;20596;-75
2023/08/31 06:10:41;;;;;;;19.20;13.70;;;;;;;10.30;100.00;100947.66;5065575;28;20024;-75
2023/08/31 06:13:07;;;;;;;19.00;13.30;;;;;;;10.36;100.00;100947.50;5062615;28;20029;-75
2023/08/31 06:15:32;;;;;;;19.73;13.30;;;;;;;10.42;100.00;100949.13;5067627;28;20414;-75
2023/08/31 06:17:57;;;;;;;19.13;13.68;;;;;;;10.46;100.00;100954.25;5063157;28;20021;-75
2023/08/31 06:20:23;;;;;;;21.52;12.70;;;;;;;10.46;100.00;100949.03;5069334;28;20039;-75
2023/08/31 06:22:48;;;;;;;18.13;13.43;;;;;;;10.58;100.00;100955.72;5057062;28;20112;-75
2023/08/31 06:25:16;;;;;;;20.38;13.85;;;;;;;10.63;100.00;100963.47;5069446;28;20067;-75
2023/08/31 06:27:42;;;;;;;18.77;12.43;;;;;;;10.72;100.00;100958.88;5060893;28;20028;-75
2023/08/31 06:30:08;;;;;;;22.45;12.95;;;;;;;10.78;100.00;100960.50;5059096;28;20033;-76
2023/08/31 06:32:33;;;;;;;17.55;12.52;;;;;;;10.85;100.00;100966.44;5060813;28;20086;-75
2023/08/31 06:34:59;;;;;;;20.48;13.80;;;;;;;10.87;100.00;100964.66;5059339;28;20468;-75
2023/08/31 06:37:24;;;;;;;18.17;13.18;;;;;;;10.93;100.00;100964.53;5064464;28;20024;-74
2023/08/31 06:39:49;;;;;;;21.67;13.48;;;;;;;11.04;100.00;100970.34;5048452;28;20033;-74
2023/08/31 06:42:15;;;;;;;16.40;12.70;;;;;;;11.09;100.00;100965.03;5053297;28;20046;-74
2023/08/31 06:44:40;;;;;;;19.73;13.13;;;;;;;11.17;100.00;100973.53;5062864;28;20040;-75
2023/08/31 06:47:05;;;;;;;21.95;13.13;;;;;;;11.25;100.00;100976.81;5063006;28;20424;-75
2023/08/31 06:49:32;;;;;;;16.92;12.10;;;;;;;11.30;100.00;100968.88;5061594;28;20036;-75
2023/08/31 06:51:59;;;;;;;20.92;13.35;;;;;;;11.39;100.00;100982.56;5058489;28;20036;-75
2023/08/31 06:54:24;;;;;;;17.17;12.55;;;;;;;11.47;100.00;100993.66;5051325;28;20029;-75
2023/08/31 06:56:49;;;;;;;17.00;12.38;;;;;;;11.53;100.00;100990.03;5052506;28;20387;-75
2023/08/31 06:59:15;;;;;;;18.00;12.13;;;;;;;11.63;100.00;100982.81;5062919;28;20051;-75
2023/08/31 07:01:40;;;;;;;16.63;12.75;;;;;;;11.68;100.00;100991.41;5053948;28;20032;-75
2023/08/31 07:04:05;;;;;;;18.50;11.40;;;;;;;11.76;100.00;100985.97;5057130;28;20384;-75
2023/08/31 07:06:34;;;;;;;18.38;11.82;;;;;;;11.85;100.00;100996.22;5057254;28;20054;-75
2023/08/31 07:09:00;;;;;;;18.63;11.68;;;;;;;11.90;100.00;100992.59;5056261;28;20021;-75
2023/08/31 07:11:26;;;;;;;18.38;12.10;;;;;;;11.99;100.00;100991.47;5057887;28;20082;-76
2023/08/31 07:13:52;;;;;;;15.05;11.25;;;;;;;12.02;100.00;100986.19;5051854;28;20135;-77
2023/08/31 07:16:18;;;;;;;18.90;11.80;;;;;;;12.17;100.00;100997.97;5062744;28;20040;-74
2023/08/31 07:18:43;;;;;;;16.73;10.90;;;;;;;12.21;100.00;100994.38;5058812;28;20024;-74
2023/08/31 07:21:12;;;;;;;16.10;10.70;;;;;;;12.22;100.00;100988.25;5050548;28;20070;-76
2023/08/31 07:23:37;;;;;;;18.05;11.73;;;;;;;12.35;100.00;100997.44;5049752;28;20476;-76
2023/08/31 07:26:04;;;;;;;19.33;11.27;;;;;;;12.47;100.00;100998.88;5060483;28;20043;-76
2023/08/31 07:28:40;;;;;;;18.35;11.68;;;;;;;12.53;100.00;101001.31;5058605;28;20074;-77
2023/08/31 07:31:06;;;;;;;17.13;10.52;;;;;;;12.60;100.00;101000.22;5058930;28;20045;-76
2023/08/31 07:33:35;;;;;;;16.42;10.63;;;;;;;12.64;100.00;101003.59;5055613;28;20040;-76
2023/08/31 07:36:01;;;;;;;15.82;10.23;;;;;;;12.68;100.00;100986.91;5062207;28;20029;-76
2023/08/31 07:38:27;;;;;;;13.40;10.07;;;;;;;12.71;100.00;100967.66;5056479;28;20491;-76
2023/08/31 07:40:56;;;;;;;15.07;10.13;;;;;;;12.89;100.00;100998.50;5062691;28;20499;-77
2023/08/31 07:43:35;;;;;;;13.50;9.30;;;;;;;13.00;100.00;101006.00;5055719;28;20033;-77
2023/08/31 07:46:00;;;;;;;12.18;9.73;;;;;;;13.05;100.00;101004.13;5060069;28;20037;-76
2023/08/31 07:48:26;;;;;;;21.42;10.35;;;;;;;13.17;100.00;101013.34;5061784;28;20480;-76
2023/08/31 07:50:51;;;;;;;15.98;10.23;;;;;;;12.94;100.00;100969.56;5061594;28;20502;-76
2023/08/31 07:53:17;;;;;;;15.60;9.90;;;;;;;13.14;100.00;100985.50;5063164;28;20029;-77
2023/08/31 07:55:51;;;;;;;14.20;10.10;;;;;;;13.20;100.00;100985.31;5060332;28;20029;-76
2023/08/31 07:58:17;;;;;;;14.07;8.90;;;;;;;13.40;100.00;100997.78;5064739;28;20036;-76
2023/08/31 08:00:42;;;;;;;14.45;8.93;;;;;;;13.54;100.00;101011.28;5062044;28;20021;-76
2023/08/31 08:03:07;;;;;;;13.48;9.52;;;;;;;13.62;100.00;101015.41;5066701;28;20024;-76
2023/08/31 08:05:33;;;;;;;12.93;9.25;;;;;;;13.70;100.00;101014.25;5068218;28;20051;-77
2023/08/31 08:07:58;;;;;;;11.95;9.10;;;;;;;13.73;100.00;101016.78;5063789;28;20025;-77
2023/08/31 08:10:23;;;;;;;15.77;9.23;;;;;;;13.68;100.00;100989.88;5071077;28;20103;-77
2023/08/31 08:12:48;;;;;;;11.90;9.10;;;;;;;13.92;100.00;101018.75;5063446;28;20083;-76
2023/08/31 08:15:14;;;;;;;14.57;9.85;;;;;;;13.86;100.00;100996.22;5071042;28;20047;-77
2023/08/31 08:17:39;;;;;;;11.45;9.20;;;;;;;13.88;100.00;100996.19;5063100;28;20017;-77
2023/08/31 08:20:06;;;;;;;17.20;9.85;;;;;;;13.98;100.00;100995.81;5071787;28;20278;-76
2023/08/31 08:22:32;;;;;;;14.43;9.20;;;;;;;14.20;100.00;101022.13;5062566;28;20028;-77
2023/08/31 08:24:57;;;;;;;14.52;10.27;;;;;;;14.20;100.00;101008.16;5063606;28;20021;-76
2023/08/31 08:27:23;;;;;;;17.65;10.13;;;;;;;14.37;100.00;101023.28;5063730;28;20047;-77
2023/08/31 08:29:48;;;;;;;13.50;9.70;;;;;;;14.16;100.00;100975.97;5062467;28;20482;-77
2023/08/31 08:32:13;;;;;;;15.90;11.07;;;;;;;14.56;100.00;101023.50;5069007;28;20390;-77
2023/08/31 08:34:39;;;;;;;15.32;9.40;;;;;;;14.48;100.00;100984.41;5051025;28;20075;-77
2023/08/31 08:37:04;;;;;;;18.85;10.38;;;;;;;14.76;100.00;101028.88;5056455;28;20029;-78
2023/08/31 08:39:30;;;;;;;13.75;9.80;;;;;;;14.58;100.00;100991.03;5062492;28;20025;-77
2023/08/31 08:41:58;;;;;;;13.32;9.20;;;;;;;14.84;100.00;101020.69;5058191;28;20040;-76
2023/08/31 08:44:28;;;;;;;11.00;9.55;;;;;;;14.88;100.00;100996.06;5066239;28;20058;-76
2023/08/31 08:46:54;;;;;;;14.73;11.02;;;;;;;15.15;100.00;101015.97;5061675;28;20390;-76
2023/08/31 08:49:20;;;;;;;12.60;9.93;;;;;;;15.23;100.00;100998.13;5058454;28;20037;-77
2023/08/31 08:51:49;;;;;;;14.82;9.85;;;;;;;15.68;100.00;101035.75;5057759;28;20029;-77
2023/08/31 08:54:14;;;;;;;14.00;9.38;;;;;;;15.59;100.00;101025.56;5066249;28;20107;-77
2023/08/31 08:56:39;;;;;;;14.05;9.30;;;;;;;15.68;100.00;101044.47;5059117;28;20033;-77
2023/08/31 08:59:05;;;;;;;13.20;9.32;;;;;;;15.54;100.00;101033.66;5056017;28;20028;-76
2023/08/31 09:01:34;;;;;;;12.80;8.90;;;;;;;15.53;100.00;101037.22;5062416;28;20030;-76
2023/08/31 09:04:00;;;;;;;13.15;8.48;;;;;;;15.55;100.00;101045.88;5068781;28;20029;-76
2023/08/31 09:06:27;;;;;;;12.85;8.45;;;;;;;15.38;100.00;101028.19;5057463;28;20025;-76
2023/08/31 09:08:56;;;;;;;11.77;7.75;;;;;;;15.37;100.00;101023.84;5056915;28;20036;-76
2023/08/31 09:11:22;;;;;;;10.35;8.02;;;;;;;15.37;100.00;101013.34;5047786;28;20040;-76
2023/08/31 09:13:48;;;;;;;11.48;7.47;;;;;;;15.78;100.00;101037.06;5056339;28;20456;-80
2023/08/31 09:16:32;;;;;;;14.63;7.40;;;;;;;16.00;100.00;101050.16;5063989;28;20036;-80
2023/08/31 09:18:58;;;;;;;9.15;6.57;;;;;;;15.91;100.00;101055.81;5062412;28;20059;-80
2023/08/31 09:21:36;;;;;;;11.18;6.93;;;;;;;16.08;100.00;101045.41;5056830;28;20044;-80
2023/08/31 09:24:02;;;;;;;10.55;6.90;;;;;;;16.27;100.00;101048.09;5065216;28;20128;-81
2023/08/31 09:26:27;;;;;;;8.27;6.22;;;;;;;16.57;100.00;101050.31;5055156;28;20522;-79
2023/08/31 09:28:53;;;;;;;9.40;6.35;;;;;;;16.57;100.00;101055.56;5052687;28;20025;-81
2023/08/31 09:31:18;;;;;;;9.90;6.38;;;;;;;16.47;100.00;101051.63;5057233;28;20036;-81
2023/08/31 09:33:53;;;;;;;14.10;6.53;;;;;;;16.35;100.00;101060.94;5053037;28;20054;-76
2023/08/31 09:36:20;;;;;;;9.65;6.03;;;;;;;16.46;100.00;101066.56;5051626;28;20064;-76
2023/08/31 09:38:45;;;;;;;9.93;5.95;;;;;;;16.63;100.00;101050.03;5047845;28;20016;-76
2023/08/31 09:41:11;;;;;;;6.65;5.70;;;;;;;16.77;100.00;101047.63;5051111;28;20430;-75
2023/08/31 09:43:39;;;;;;;8.60;6.20;;;;;;;16.94;100.00;101044.25;5053318;28;20472;-76
2023/08/31 09:46:05;;;;;;;8.80;6.05;;;;;;;17.04;100.00;101032.34;5058461;28;20036;-75
2023/08/31 09:48:31;;;;;;;10.93;5.75;;;;;;;17.29;100.00;101034.66;5052364;28;20375;-75
2023/08/31 09:50:57;;;;;;;9.32;5.00;;;;;;;17.31;100.00;101016.16;5047881;28;20434;-75
2023/08/31 09:53:28;;;;;;;8.43;4.68;;;;;;;17.73;100.00;101041.31;5064283;28;20033;-76
2023/08/31 09:55:54;;;;;;;7.55;4.00;;;;;;;17.74;100.00;101040.38;5043613;28;20116;-76
2023/08/31 09:58:21;;;;;;;6.72;3.65;;;;;;;17.73;100.00;101062.41;5061261;28;20108;-75
2023/08/31 10:00:48;;;;;;;10.77;4.72;;;;;;;17.44;100.00;101056.78;5053351;28;20617;-76
2023/08/31 10:03:15;;;;;;;7.03;4.10;;;;;;;17.25;100.00;101043.63;5064716;28;20021;-75
2023/08/31 10:05:43;;;;;;;7.70;4.25;;;;;;;17.48;100.00;101045.16;5064719;28;20029;-76
2023/08/31 10:08:09;;;;;;;6.80;4.00;;;;;;;17.81;100.00;101060.25;5062725;28;20033;-76
2023/08/31 10:10:34;;;;;;;7.07;4.00;;;;;;;17.56;100.00;101039.53;5066814;28;20044;-75
2023/08/31 10:13:01;;;;;;;8.10;4.10;;;;;;;17.88;100.00;101064.28;5061814;28;20076;-76
2023/08/31 10:15:33;;;;;;;7.93;3.88;;;;;;;18.11;100.00;101033.25;5068672;28;20551;-76
2023/08/31 10:18:00;;;;;;;9.88;3.60;;;;;;;18.88;100.00;101053.81;5055915;28;20021;-75
2023/08/31 10:20:28;;;;;;;5.82;3.33;;;;;;;19.45;100.00;101054.13;5047029;28;20035;-75
2023/08/31 10:22:56;;;;;;;6.78;3.45;;;;;;;19.50;100.00;101048.59;5062934;28;20040;-76
2023/08/31 10:25:21;;;;;;;5.50;3.33;;;;;;;19.53;100.00;101053.72;5056671;28;20185;-76
2023/08/31 10:27:50;;;;;;;5.53;3.05;;;;;;;19.24;100.00;101048.28;5059314;28;20119;-76
2023/08/31 10:30:21;;;;;;;5.85;3.30;;;;;;;18.85;100.00;101062.75;5058742;28;20025;-76
2023/08/31 10:33:21;;;;;;;5.40;3.20;;;;;;;18.48;100.00;101062.06;5063970;28;20483;-76
2023/08/31 10:35:55;;;;;;;5.80;3.28;;;;;;;18.26;100.00;101064.13;5056487;28;20123;-76
2023/08/31 10:38:30;;;;;;;5.55;3.20;;;;;;;18.04;100.00;101066.16;5057598;28;20017;-75
2023/08/31 10:41:07;;;;;;;8.70;3.25;;;;;;;17.76;100.00;101055.22;5050471;28;20020;-76
2023/08/31 10:43:59;;;;;;;4.85;3.10;;;;;;;17.67;100.00;101045.09;5061252;28;20083;-76
2023/08/31 10:46:30;;;;;;;4.90;2.97;;;;;;;18.05;100.00;101054.66;5054487;28;20025;-76
2023/08/31 10:49:08;;;;;;;7.25;3.35;;;;;;;18.31;100.00;101024.28;5061257;28;20480;-76
2023/08/31 10:51:34;;;;;;;4.50;2.90;;;;;;;18.57;100.00;101021.09;5053625;28;20484;-76
2023/08/31 10:54:30;;;;;;;8.65;2.78;;;;;;;19.12;100.00;101026.03;5059959;28;20071;-75
2023/08/31 10:57:08;;;;;;;4.93;2.50;;;;;;;19.33;100.00;101021.34;5048232;28;20043;-74
2023/08/31 10:59:43;;;;;;;4.60;2.72;;;;;;;19.50;100.00;101027.44;5063422;28;20035;-73
2023/08/31 11:02:09;;;;;;;6.55;2.88;;;;;;;19.75;100.00;101017.19;5050017;28;20031;-73
2023/08/31 11:05:03;;;;;;;4.70;2.70;;;;;;;20.22;100.00;101029.34;5061325;28;20033;-74
2023/08/31 11:07:29;;;;;;;6.80;2.90;;;;;;;20.01;86.68;101022.69;5055195;28;20033;-74
2023/08/31 11:10:13;;;;;;;6.97;2.88;;;;;;;19.63;93.43;101020.50;5058289;28;20372;-76